Time;durP1;ratioP1;P1;durP2;ratioP2;P2;SDS_P1;SDS_P2;PMS_P1;PMS_P2;Temp;Humidity;BMP_temperature;BMP_pressure;BME280_temperature;BME280_humidity;BME280_pressure;Samples;Min_cycle;Max_cycle;Signal;HPM_P1;HPM_P2
2023/12/20 00:02:18;;;;;;;21.50;14.40;;;;;;;6.56;100.00;99822.49;105662;1266;99109;-77
2023/12/20 00:05:04;;;;;;;22.70;15.10;;;;;;;6.55;100.00;99814.97;105653;1262;96553;-78
2023/12/20 00:07:49;;;;;;;22.50;15.20;;;;;;;6.55;100.00;99813.34;105811;1262;97155;-78
2023/12/20 00:10:35;;;;;;;22.10;14.10;;;;;;;6.57;100.00;99815.98;105626;1262;101304;-78
2023/12/20 00:13:20;;;;;;;19.40;13.40;;;;;;;6.56;100.00;99814.65;105811;1264;99091;-78
2023/12/20 00:16:06;;;;;;;20.60;13.90;;;;;;;6.56;100.00;99812.52;105622;1264;97884;-78
2023/12/20 00:18:52;;;;;;;17.30;13.10;;;;;;;6.57;100.00;99810.45;105622;1262;97303;-78
2023/12/20 00:21:38;;;;;;;21.00;13.10;;;;;;;6.58;100.00;99805.75;105647;1264;97161;-78
2023/12/20 00:24:24;;;;;;;22.10;13.80;;;;;;;6.60;100.00;99804.67;105684;1264;100029;-79
2023/12/20 00:27:09;;;;;;;18.00;11.80;;;;;;;6.61;100.00;99805.56;105640;1262;106479;-78
2023/12/20 00:29:55;;;;;;;16.10;11.90;;;;;;;6.62;100.00;99805.15;105683;1262;99119;-79
2023/12/20 00:32:46;;;;;;;19.50;12.70;;;;;;;6.61;100.00;99800.20;105666;1262;97155;-78
2023/12/20 00:35:31;;;;;;;;;;;;;;;6.61;100.00;99796.50;105591;1262;96559;-78
2023/12/20 00:38:18;;;;;;;19.80;11.20;;;;;;;6.61;100.00;99798.13;105740;1262;100075;-78
2023/12/20 00:41:03;;;;;;;17.00;11.90;;;;;;;6.61;100.00;99800.47;105734;1262;100686;-78
2023/12/20 00:43:49;;;;;;;15.30;11.20;;;;;;;6.61;100.00;99795.10;105638;1262;97829;-79
2023/12/20 00:46:35;;;;;;;15.20;11.30;;;;;;;6.61;100.00;99793.27;105656;1267;96559;-78
2023/12/20 00:49:20;;;;;;;15.40;11.30;;;;;;;6.62;100.00;99789.65;105969;1267;96630;-78
2023/12/20 00:52:05;;;;;;;15.00;11.20;;;;;;;6.63;100.00;99786.21;105691;1266;100825;-78
2023/12/20 00:54:52;;;;;;;16.00;11.70;;;;;;;6.64;100.00;99784.27;105799;1266;101289;-77
2023/12/20 00:57:37;;;;;;;15.00;11.50;;;;;;;6.65;100.00;99786.42;105657;1265;97778;-77
2023/12/20 01:00:23;;;;;;;16.10;11.70;;;;;;;6.66;100.00;99785.48;105741;1262;96541;-78
2023/12/20 01:03:08;;;;;;;15.50;11.80;;;;;;;6.67;100.00;99773.63;106152;1262;95688;-79
2023/12/20 01:05:54;;;;;;;16.70;11.40;;;;;;;6.66;100.00;99779.73;106168;1262;101637;-80
2023/12/20 01:08:39;;;;;;;17.30;11.00;;;;;;;6.66;100.00;99783.02;106552;1262;99187;-80
2023/12/20 01:11:25;;;;;;;14.70;11.10;;;;;;;6.66;100.00;99778.70;106744;1262;99108;-79
2023/12/20 01:14:11;;;;;;;13.30;10.20;;;;;;;6.67;100.00;99781.41;106251;1262;96649;-80
2023/12/20 01:16:57;;;;;;;14.40;9.90;;;;;;;6.68;100.00;99776.89;106218;1265;96405;-80
2023/12/20 01:19:42;;;;;;;13.40;10.10;;;;;;;6.68;100.00;99771.60;106232;1264;100080;-80
2023/12/20 01:22:28;;;;;;;14.00;10.00;;;;;;;6.66;100.00;99767.64;106141;1262;99138;-80
2023/12/20 01:25:13;;;;;;;12.00;9.20;;;;;;;6.67;100.00;99758.77;106149;1268;99059;-80
2023/12/20 01:27:59;;;;;;;13.60;9.70;;;;;;;6.68;100.00;99760.27;106131;1264;97035;-80
2023/12/20 01:30:44;;;;;;;13.30;9.70;;;;;;;6.68;100.00;99757.18;106145;1262;97074;-80
2023/12/20 01:33:30;;;;;;;13.00;9.50;;;;;;;6.69;100.00;99757.65;106165;1265;100197;-80
2023/12/20 01:36:15;;;;;;;10.20;7.70;;;;;;;6.69;100.00;99761.66;106126;1262;99841;-79
2023/12/20 01:39:01;;;;;;;14.50;8.70;;;;;;;6.69;100.00;99754.52;106151;1262;97732;-79
2023/12/20 01:41:47;;;;;;;10.40;8.00;;;;;;;6.70;100.00;99755.04;106102;1262;96526;-80
2023/12/20 01:44:32;;;;;;;13.20;9.30;;;;;;;6.70;100.00;99754.41;106083;1262;96606;-79
2023/12/20 01:47:17;;;;;;;11.20;8.50;;;;;;;6.70;100.00;99749.48;106179;1262;100103;-80
2023/12/20 01:50:04;;;;;;;13.40;10.10;;;;;;;6.70;100.00;99746.48;106259;1262;99147;-80
2023/12/20 01:52:52;;;;;;;11.80;9.30;;;;;;;6.71;100.00;99745.48;106146;1262;99332;-79
2023/12/20 01:55:40;;;;;;;11.10;8.60;;;;;;;6.71;100.00;99745.67;105261;1267;96630;-78
2023/12/20 01:58:26;;;;;;;13.70;9.70;;;;;;;6.70;100.00;99746.98;105493;1264;97215;-78
2023/12/20 02:01:12;;;;;;;11.60;8.20;;;;;;;6.70;100.00;99737.41;105887;1266;100053;-78
2023/12/20 02:03:59;;;;;;;12.20;8.90;;;;;;;6.70;100.00;99734.29;105710;1264;99171;-78
2023/12/20 02:06:46;;;;;;;12.80;8.80;;;;;;;6.69;100.00;99731.50;105795;1265;98997;-78
2023/12/20 02:09:32;;;;;;;11.50;8.90;;;;;;;6.69;100.00;99737.35;105707;1262;96646;-79
2023/12/20 02:12:18;;;;;;;11.40;8.90;;;;;;;6.68;100.00;99731.43;105732;1260;96414;-78
2023/12/20 02:15:05;;;;;;;11.80;8.50;;;;;;;6.69;100.00;99723.48;105676;1262;101431;-79
2023/12/20 02:17:51;;;;;;;11.50;8.00;;;;;;;6.70;100.00;99727.29;105722;1267;100342;-79
2023/12/20 02:20:36;;;;;;;12.60;8.20;;;;;;;6.70;100.00;99723.77;105663;1264;99098;-79
2023/12/20 02:23:21;;;;;;;10.30;8.90;;;;;;;6.69;100.00;99715.92;105654;1262;96551;-79
2023/12/20 02:26:07;;;;;;;11.90;8.70;;;;;;;6.67;100.00;99717.51;105725;1264;96518;-78
2023/12/20 02:28:53;;;;;;;12.60;10.60;;;;;;;6.67;100.00;99708.45;105687;1264;100000;-78
2023/12/20 02:31:39;;;;;;;11.40;9.60;;;;;;;6.68;100.00;99697.34;105681;1262;99127;-78
2023/12/20 02:34:24;;;;;;;11.60;9.70;;;;;;;6.69;100.00;99704.92;105668;1265;98864;-77
2023/12/20 02:37:10;;;;;;;13.00;9.60;;;;;;;6.69;100.00;99707.77;105689;1262;96560;-78
2023/12/20 02:39:55;;;;;;;11.10;8.60;;;;;;;6.69;100.00;99704.76;105711;1264;97097;-78
2023/12/20 02:42:41;;;;;;;10.50;9.00;;;;;;;6.68;100.00;99698.07;105735;1268;100784;-79
2023/12/20 02:45:27;;;;;;;10.60;9.40;;;;;;;6.68;100.00;99702.36;105716;1267;100900;-78
2023/12/20 02:48:12;;;;;;;11.90;9.00;;;;;;;6.68;100.00;99702.17;105775;1262;97765;-79
2023/12/20 02:50:58;;;;;;;11.80;9.40;;;;;;;6.69;100.00;99705.30;105661;1266;97567;-78
2023/12/20 02:53:43;;;;;;;11.50;9.50;;;;;;;6.70;100.00;99708.21;105806;1262;97526;-79
2023/12/20 02:56:29;;;;;;;12.20;9.60;;;;;;;6.70;100.00;99704.45;105741;1265;101232;-79
2023/12/20 02:59:15;;;;;;;12.80;9.60;;;;;;;6.70;100.00;99702.19;105748;1262;100150;-78
2023/12/20 03:02:00;;;;;;;13.10;10.50;;;;;;;6.70;100.00;99702.63;105650;1267;98995;-79
2023/12/20 03:04:46;;;;;;;13.70;9.70;;;;;;;6.70;100.00;99699.33;105635;1262;96627;-78
2023/12/20 03:07:31;;;;;;;11.00;9.40;;;;;;;6.70;100.00;99690.11;105744;1262;96547;-79
2023/12/20 03:10:18;;;;;;;10.70;9.30;;;;;;;6.70;100.00;99688.14;105628;1262;100029;-78
2023/12/20 03:13:04;;;;;;;11.60;9.40;;;;;;;6.70;100.00;99691.17;105646;1264;99150;-78
2023/12/20 03:15:49;;;;;;;11.60;9.30;;;;;;;6.70;100.00;99694.89;105657;1262;97778;-79
2023/12/20 03:18:35;;;;;;;13.00;9.80;;;;;;;6.69;100.00;99690.30;105718;1262;96618;-78
2023/12/20 03:21:20;;;;;;;11.60;8.90;;;;;;;6.69;100.00;99689.40;105770;1262;96582;-79
2023/12/20 03:24:06;;;;;;;9.40;8.40;;;;;;;6.70;100.00;99685.28;105656;1262;101584;-78
2023/12/20 03:26:52;;;;;;;13.30;10.00;;;;;;;6.70;100.00;99684.17;105641;1262;99174;-78
2023/12/20 03:29:38;;;;;;;10.70;8.70;;;;;;;6.72;100.00;99679.01;105758;1267;98999;-79
2023/12/20 03:32:23;;;;;;;12.40;9.40;;;;;;;6.74;100.00;99673.59;105765;1262;96577;-78
2023/12/20 03:35:09;;;;;;;12.20;9.50;;;;;;;6.75;100.00;99680.44;105649;1267;96526;-78
2023/12/20 03:37:54;;;;;;;12.30;10.80;;;;;;;6.75;100.00;99683.55;105695;1262;100072;-79
2023/12/20 03:40:40;;;;;;;12.50;10.10;;;;;;;6.77;100.00;99680.67;105606;1262;99126;-78
2023/12/20 03:43:25;;;;;;;14.60;10.90;;;;;;;6.77;100.00;99683.21;105684;1267;99074;-79
2023/12/20 03:46:11;;;;;;;11.90;10.40;;;;;;;6.76;100.00;99683.61;105658;1262;96673;-78
2023/12/20 03:48:56;;;;;;;11.60;10.00;;;;;;;6.76;100.00;99677.96;106039;1267;96585;-78
2023/12/20 03:51:42;;;;;;;12.30;10.90;;;;;;;6.76;100.00;99665.05;105672;1266;101243;-78
2023/12/20 03:54:28;;;;;;;11.30;9.50;;;;;;;6.76;100.00;99667.14;105623;1265;99652;-79
2023/12/20 03:57:14;;;;;;;10.90;9.00;;;;;;;6.76;100.00;99674.59;105823;1262;99134;-79
2023/12/20 03:59:59;;;;;;;9.80;8.40;;;;;;;6.75;100.00;99680.02;105654;1264;97527;-79
2023/12/20 04:02:45;;;;;;;10.40;8.60;;;;;;;6.72;100.00;99680.00;105706;1262;97223;-78
2023/12/20 04:05:30;;;;;;;12.50;9.10;;;;;;;6.72;100.00;99680.43;105716;1262;100052;-79
2023/12/20 04:08:16;;;;;;;11.80;9.10;;;;;;;6.71;100.00;99682.94;105692;1262;100726;-79
2023/12/20 04:11:01;;;;;;;10.00;8.80;;;;;;;6.71;100.00;99684.04;105642;1266;99115;-79
2023/12/20 04:13:47;;;;;;;11.30;9.30;;;;;;;6.70;100.00;99685.48;105702;1262;97817;-79
2023/12/20 04:16:32;;;;;;;12.10;10.20;;;;;;;6.68;100.00;99681.91;105666;1265;96535;-79
2023/12/20 04:19:18;;;;;;;11.70;9.40;;;;;;;6.68;100.00;99675.89;105783;1262;100017;-79
2023/12/20 04:22:03;;;;;;;13.40;10.40;;;;;;;6.70;100.00;99675.21;105786;1265;99190;-79
2023/12/20 04:24:49;;;;;;;11.80;10.00;;;;;;;6.70;100.00;99676.92;105284;1268;98824;-77
2023/12/20 04:27:35;;;;;;;13.30;9.70;;;;;;;6.70;100.00;99680.76;105450;1272;96537;-78
2023/12/20 04:30:20;;;;;;;11.80;10.20;;;;;;;6.70;100.00;99681.32;105190;1265;96711;-78
2023/12/20 04:33:06;;;;;;;10.50;9.30;;;;;;;6.70;100.00;99684.52;105186;1262;100049;-77
2023/12/20 04:35:51;;;;;;;12.80;10.40;;;;;;;6.68;100.00;99680.31;104886;1266;99183;-77
2023/12/20 04:38:37;;;;;;;11.40;10.30;;;;;;;6.66;100.00;99677.33;105667;1265;99056;-78
2023/12/20 04:41:23;;;;;;;12.30;9.80;;;;;;;6.67;100.00;99678.52;105819;1267;97391;-78
2023/12/20 04:44:08;;;;;;;11.50;10.20;;;;;;;6.68;100.00;99676.79;105617;1262;97386;-79
2023/12/20 04:46:54;;;;;;;13.50;10.80;;;;;;;6.69;100.00;99673.80;105598;1262;100033;-78
2023/12/20 04:49:39;;;;;;;12.70;11.30;;;;;;;6.69;100.00;99669.42;105425;1266;100380;-77
2023/12/20 04:52:25;;;;;;;12.50;9.50;;;;;;;6.68;100.00;99667.04;105750;1264;97671;-78
2023/12/20 04:55:11;;;;;;;10.80;9.30;;;;;;;6.68;100.00;99669.09;105637;1262;97212;-79
2023/12/20 04:57:56;;;;;;;14.10;11.50;;;;;;;6.66;100.00;99662.71;105499;1267;98228;-77
2023/12/20 05:00:42;;;;;;;11.40;9.90;;;;;;;6.64;100.00;99658.80;105066;1265;100071;-78
2023/12/20 05:03:27;;;;;;;11.50;8.90;;;;;;;6.65;100.00;99654.89;104821;1267;100078;-77
2023/12/20 05:06:13;;;;;;;10.10;8.90;;;;;;;6.64;100.00;99654.45;105685;1266;97760;-79
2023/12/20 05:08:58;;;;;;;11.90;9.90;;;;;;;6.65;100.00;99653.93;105740;1277;97176;-79
2023/12/20 05:11:44;;;;;;;12.10;9.60;;;;;;;6.67;100.00;99654.82;105665;1262;97960;-79
2023/12/20 05:14:30;;;;;;;12.00;9.10;;;;;;;6.68;100.00;99654.48;105607;1263;100192;-78
2023/12/20 05:17:15;;;;;;;9.70;8.50;;;;;;;6.66;100.00;99652.15;105696;1264;99689;-79
2023/12/20 05:20:01;;;;;;;10.10;9.10;;;;;;;6.66;100.00;99647.08;105648;1265;98020;-80
2023/12/20 05:22:48;;;;;;;9.60;8.10;;;;;;;6.67;100.00;99646.73;106153;1262;96557;-78
2023/12/20 05:25:33;;;;;;;9.40;8.20;;;;;;;6.66;100.00;99645.11;105640;1262;96526;-79
2023/12/20 05:28:19;;;;;;;12.90;8.30;;;;;;;6.64;100.00;99646.64;105683;1266;101285;-79
2023/12/20 05:31:04;;;;;;;9.60;8.20;;;;;;;6.63;100.00;99643.02;106026;1261;99165;-78
2023/12/20 05:33:50;;;;;;;8.50;7.50;;;;;;;6.63;100.00;99645.72;105514;1265;98767;-79
2023/12/20 05:36:36;;;;;;;8.50;7.60;;;;;;;6.62;100.00;99650.63;105654;1264;97555;-80
2023/12/20 05:39:22;;;;;;;10.60;8.60;;;;;;;6.61;100.00;99650.06;106225;1266;96454;-80
2023/12/20 05:42:07;;;;;;;9.90;7.80;;;;;;;6.60;100.00;99649.64;106093;1264;101814;-80
2023/12/20 05:44:53;;;;;;;11.20;9.00;;;;;;;6.60;100.00;99644.05;106133;1265;99823;-80
2023/12/20 05:47:38;;;;;;;9.90;8.70;;;;;;;6.62;100.00;99641.01;106633;1265;97767;-81
2023/12/20 05:50:24;;;;;;;10.60;9.50;;;;;;;6.65;100.00;99640.43;106588;1264;97377;-81
2023/12/20 05:53:09;;;;;;;10.40;9.30;;;;;;;6.68;100.00;99637.96;106538;1264;96516;-80
2023/12/20 05:55:55;;;;;;;9.80;8.10;;;;;;;6.68;100.00;99637.11;106123;1266;100061;-80
2023/12/20 05:58:41;;;;;;;10.00;8.00;;;;;;;6.66;100.00;99640.20;106479;1267;100369;-80
2023/12/20 06:01:26;;;;;;;10.10;7.80;;;;;;;6.66;100.00;99641.96;106280;1267;97725;-78
2023/12/20 06:04:11;;;;;;;7.20;6.30;;;;;;;6.65;100.00;99648.25;105402;1265;96427;-79
2023/12/20 06:06:57;;;;;;;8.40;7.20;;;;;;;6.65;100.00;99645.98;105565;1268;97190;-79
2023/12/20 06:09:43;;;;;;;8.40;7.30;;;;;;;6.67;100.00;99643.52;105624;1264;100117;-80
2023/12/20 06:12:29;;;;;;;9.50;7.90;;;;;;;6.69;100.00;99643.88;105767;1265;100521;-78
2023/12/20 06:15:14;;;;;;;8.70;7.80;;;;;;;6.71;100.00;99648.83;105537;1276;99073;-79
2023/12/20 06:18:00;;;;;;;9.10;7.50;;;;;;;6.73;100.00;99646.19;105764;1264;96679;-79
2023/12/20 06:20:45;;;;;;;8.50;7.40;;;;;;;6.72;100.00;99644.24;105680;1268;96529;-78
2023/12/20 06:23:31;;;;;;;8.50;7.60;;;;;;;6.70;100.00;99644.30;105683;1264;99996;-78
2023/12/20 06:26:17;;;;;;;10.00;8.50;;;;;;;6.68;100.00;99645.59;105720;1266;99299;-77
2023/12/20 06:29:02;;;;;;;12.40;7.80;;;;;;;6.66;100.00;99644.02;105767;1268;99026;-79
2023/12/20 06:31:48;;;;;;;10.00;8.10;;;;;;;6.66;100.00;99644.55;105667;1267;95831;-78
2023/12/20 06:34:33;;;;;;;11.30;9.20;;;;;;;6.64;100.00;99645.55;105632;1264;97067;-78
2023/12/20 06:37:19;;;;;;;10.20;8.90;;;;;;;6.61;100.00;99645.77;105476;1266;100016;-77
2023/12/20 06:40:06;;;;;;;11.00;9.30;;;;;;;6.61;100.00;99650.36;105496;1266;99280;-80
2023/12/20 06:42:52;;;;;;;11.90;8.20;;;;;;;6.60;100.00;99652.14;106190;1266;99021;-80
2023/12/20 06:45:38;;;;;;;10.30;9.10;;;;;;;6.59;100.00;99656.80;106061;1266;96624;-80
2023/12/20 06:48:24;;;;;;;10.70;9.00;;;;;;;6.60;100.00;99654.36;106235;1265;97211;-79
2023/12/20 06:51:15;;;;;;;9.80;8.80;;;;;;;6.62;100.00;99651.89;106269;1267;100848;-80
2023/12/20 06:54:02;;;;;;;8.70;7.80;;;;;;;6.61;100.00;99646.10;106240;1264;99164;-79
2023/12/20 06:56:48;;;;;;;8.90;7.90;;;;;;;6.60;100.00;99646.82;106165;1260;99049;-80
2023/12/20 06:59:37;;;;;;;9.50;8.40;;;;;;;6.58;100.00;99649.26;106158;1262;97075;-79
2023/12/20 07:02:23;;;;;;;11.90;8.00;;;;;;;6.59;100.00;99651.48;106182;1263;97209;-80
2023/12/20 07:05:08;;;;;;;8.80;7.60;;;;;;;6.59;100.00;99651.48;106235;1264;100821;-80
2023/12/20 07:07:54;;;;;;;9.00;8.10;;;;;;;6.58;100.00;99648.11;106169;1266;99171;-79
2023/12/20 07:10:40;;;;;;;10.90;8.50;;;;;;;6.57;100.00;99651.33;105455;1266;99153;-78
2023/12/20 07:13:25;;;;;;;11.30;9.00;;;;;;;6.57;100.00;99649.73;105133;1266;96803;-78
2023/12/20 07:16:11;;;;;;;12.30;10.70;;;;;;;6.58;100.00;99650.23;105158;1275;96596;-78
2023/12/20 07:18:57;;;;;;;11.70;8.90;;;;;;;6.57;100.00;99653.00;105452;1265;101325;-78
2023/12/20 07:21:42;;;;;;;10.30;8.90;;;;;;;6.57;100.00;99657.73;105756;1267;100017;-78
2023/12/20 07:24:28;;;;;;;12.30;9.70;;;;;;;6.58;100.00;99660.89;105661;1267;98994;-78
2023/12/20 07:27:13;;;;;;;11.80;10.10;;;;;;;6.56;100.00;99661.03;105668;1264;96646;-78
2023/12/20 07:29:59;;;;;;;9.80;8.70;;;;;;;6.53;100.00;99662.83;105701;1262;97152;-77
2023/12/20 07:32:44;;;;;;;12.20;8.20;;;;;;;6.52;100.00;99659.61;105533;1263;100197;-78
2023/12/20 07:35:30;;;;;;;10.50;9.00;;;;;;;6.53;100.00;99660.07;105678;1264;100392;-78
2023/12/20 07:38:15;;;;;;;9.50;8.50;;;;;;;6.52;100.00;99657.72;105592;1267;97823;-79
2023/12/20 07:41:01;;;;;;;10.20;8.40;;;;;;;6.51;100.00;99655.48;105886;1264;96418;-79
2023/12/20 07:43:47;;;;;;;8.20;7.20;;;;;;;6.52;100.00;99653.63;105606;1264;96577;-78
2023/12/20 07:46:32;;;;;;;8.40;7.00;;;;;;;6.54;100.00;99653.34;105652;1267;101394;-78
2023/12/20 07:49:19;;;;;;;8.30;7.10;;;;;;;6.54;100.00;99653.11;105933;1262;99120;-79
2023/12/20 07:52:05;;;;;;;10.00;7.80;;;;;;;6.54;100.00;99656.56;105597;1264;97783;-79
2023/12/20 07:54:50;;;;;;;8.00;6.80;;;;;;;6.50;100.00;99654.73;105618;1267;97047;-79
2023/12/20 07:57:36;;;;;;;8.00;7.10;;;;;;;6.48;100.00;99655.06;105776;1266;98316;-79
2023/12/20 08:00:22;;;;;;;11.60;7.10;;;;;;;6.49;100.00;99656.25;105729;1265;100750;-79
2023/12/20 08:03:07;;;;;;;9.60;7.40;;;;;;;6.50;100.00;99654.59;105747;1267;99075;-79
2023/12/20 08:05:53;;;;;;;18.10;13.80;;;;;;;6.51;100.00;99652.12;105636;1267;98755;-79
2023/12/20 08:08:38;;;;;;;15.40;11.40;;;;;;;6.52;100.00;99652.00;105752;1265;96532;-79
2023/12/20 08:11:24;;;;;;;15.10;13.30;;;;;;;6.52;100.00;99649.21;105783;1264;96549;-79
2023/12/20 08:14:10;;;;;;;13.50;12.10;;;;;;;6.49;100.00;99644.84;105734;1264;101372;-78
2023/12/20 08:16:55;;;;;;;13.10;11.10;;;;;;;6.49;100.00;99649.84;105722;1263;99180;-79
2023/12/20 08:19:41;;;;;;;13.70;12.30;;;;;;;6.51;100.00;99649.52;105702;1267;97966;-79
2023/12/20 08:22:27;;;;;;;9.70;8.00;;;;;;;6.51;100.00;99646.95;105717;1264;97063;-79
2023/12/20 08:25:12;;;;;;;10.70;9.20;;;;;;;6.51;100.00;99643.55;105573;1261;97848;-78
2023/12/20 08:27:58;;;;;;;11.70;9.50;;;;;;;6.50;100.00;99640.55;105728;1264;100055;-79
2023/12/20 08:30:44;;;;;;;10.70;9.10;;;;;;;6.47;100.00;99636.80;105625;1267;100140;-79
2023/12/20 08:33:29;;;;;;;9.00;8.10;;;;;;;6.46;100.00;99641.39;105637;1260;98454;-78
2023/12/20 08:36:17;;;;;;;10.20;8.70;;;;;;;6.47;100.00;99647.48;105669;1264;96623;-79
2023/12/20 08:39:06;;;;;;;9.30;7.80;;;;;;;6.47;100.00;99642.31;108072;1262;94234;-79
2023/12/20 08:41:52;;;;;;;9.80;7.20;;;;;;;6.49;100.00;99641.42;106158;1261;102002;-79
2023/12/20 08:44:37;;;;;;;10.10;8.20;;;;;;;6.50;100.00;99637.69;105659;1264;99829;-78
2023/12/20 08:47:23;;;;;;;11.30;8.80;;;;;;;6.51;100.00;99634.30;105918;1264;97833;-79
2023/12/20 08:50:09;;;;;;;11.90;9.30;;;;;;;6.51;100.00;99635.41;105523;1267;96529;-79
2023/12/20 08:52:54;;;;;;;9.50;8.50;;;;;;;6.52;100.00;99634.80;105583;1267;97062;-79
2023/12/20 08:55:40;;;;;;;11.60;8.50;;;;;;;6.51;100.00;99625.17;105757;1261;100780;-78
2023/12/20 08:58:26;;;;;;;11.00;8.80;;;;;;;6.51;100.00;99627.86;105721;1264;100511;-79
2023/12/20 09:01:11;;;;;;;11.20;9.30;;;;;;;6.52;100.00;99623.30;105659;1260;99065;-79
2023/12/20 09:03:57;;;;;;;9.80;7.90;;;;;;;6.52;100.00;99625.07;105668;1264;96675;-79
2023/12/20 09:06:42;;;;;;;14.00;10.40;;;;;;;6.52;100.00;99627.20;105699;1264;97383;-79
2023/12/20 09:09:28;;;;;;;10.70;9.60;;;;;;;6.52;100.00;99623.10;105493;1275;100060;-79
2023/12/20 09:12:13;;;;;;;12.30;10.40;;;;;;;6.52;100.00;99620.11;105752;1265;99248;-80
2023/12/20 09:15:02;;;;;;;11.10;10.00;;;;;;;6.52;100.00;99617.54;105875;1261;98346;-79
2023/12/20 09:17:48;;;;;;;10.40;8.90;;;;;;;6.54;100.00;99614.00;106218;1265;96622;-79
2023/12/20 09:20:34;;;;;;;11.40;9.50;;;;;;;6.53;100.00;99612.64;105782;1262;96595;-79
2023/12/20 09:23:20;;;;;;;12.00;9.80;;;;;;;6.54;100.00;99611.17;105666;1261;100826;-77
2023/12/20 09:26:05;;;;;;;13.10;9.60;;;;;;;6.55;100.00;99604.98;105429;1261;99275;-79
2023/12/20 09:28:51;;;;;;;10.20;8.70;;;;;;;6.57;100.00;99606.29;105630;1267;97774;-78
2023/12/20 09:31:36;;;;;;;11.10;8.90;;;;;;;6.59;100.00;99603.73;105594;1266;96732;-78
2023/12/20 09:34:22;;;;;;;12.90;9.80;;;;;;;6.60;100.00;99604.00;105390;1261;97703;-78
2023/12/20 09:37:08;;;;;;;13.30;10.10;;;;;;;6.59;100.00;99604.82;105599;1264;100564;-78
2023/12/20 09:39:54;;;;;;;13.30;10.30;;;;;;;6.58;100.00;99608.52;105570;1264;99304;-78
2023/12/20 09:42:50;;;;;;;12.50;10.40;;;;;;;6.57;100.00;99607.98;105714;1264;98523;-79
2023/12/20 09:45:36;;;;;;;12.00;9.00;;;;;;;6.56;100.00;99605.97;106952;1264;96525;-81
2023/12/20 09:48:21;;;;;;;11.80;10.40;;;;;;;6.53;100.00;99604.67;105823;1267;96825;-78
2023/12/20 09:51:07;;;;;;;10.50;9.10;;;;;;;6.52;100.00;99599.90;105929;1262;100018;-80
2023/12/20 09:53:54;;;;;;;12.10;9.60;;;;;;;6.52;100.00;99598.83;106202;1267;99244;-79
2023/12/20 09:56:39;;;;;;;9.90;8.20;;;;;;;6.51;100.00;99594.93;106237;1266;97857;-80
2023/12/20 09:59:25;;;;;;;12.00;9.10;;;;;;;6.52;100.00;99592.23;106269;1262;96634;-80
2023/12/20 10:02:16;;;;;;;10.50;9.00;;;;;;;6.52;100.00;99594.65;106087;1262;97151;-79
2023/12/20 10:05:03;;;;;;;11.30;9.60;;;;;;;6.55;100.00;99595.26;106825;1264;100089;-80
2023/12/20 10:07:48;;;;;;;14.40;11.00;;;;;;;6.58;100.00;99590.35;106306;1264;99956;-79
2023/12/20 10:10:34;;;;;;;11.90;9.40;;;;;;;6.60;100.00;99582.66;106177;1266;98356;-79
2023/12/20 10:13:20;;;;;;;11.70;8.70;;;;;;;6.61;100.00;99583.08;106194;1260;97241;-80
2023/12/20 10:16:07;;;;;;;11.10;9.00;;;;;;;6.60;100.00;99583.55;106223;1263;97251;-79
2023/12/20 10:18:54;;;;;;;10.00;8.90;;;;;;;6.60;100.00;99583.35;106265;1261;100060;-79
2023/12/20 10:21:39;;;;;;;12.00;9.30;;;;;;;6.60;100.00;99576.32;106424;1263;100170;-79
2023/12/20 10:24:24;;;;;;;11.10;9.10;;;;;;;6.62;100.00;99574.86;106157;1265;97971;-79
2023/12/20 10:27:10;;;;;;;8.70;7.80;;;;;;;6.63;100.00;99577.94;106178;1264;96562;-80
2023/12/20 10:29:58;;;;;;;9.80;8.30;;;;;;;6.63;100.00;99574.38;106835;1264;96525;-79
2023/12/20 10:32:44;;;;;;;12.30;9.80;;;;;;;6.65;100.00;99572.48;106259;1262;100001;-79
2023/12/20 10:35:29;;;;;;;10.80;9.50;;;;;;;6.67;100.00;99570.66;106236;1263;99987;-79
2023/12/20 10:38:15;;;;;;;9.20;7.70;;;;;;;6.68;100.00;99566.16;106236;1263;97783;-80
2023/12/20 10:41:04;;;;;;;12.50;9.70;;;;;;;6.67;100.00;99568.66;106203;1264;96694;-80
2023/12/20 10:43:49;;;;;;;9.80;8.40;;;;;;;6.69;100.00;99567.19;106751;1264;96458;-79
2023/12/20 10:46:38;;;;;;;10.40;8.40;;;;;;;6.70;100.00;99563.37;106225;1266;100141;-79
2023/12/20 10:49:26;;;;;;;10.30;7.30;;;;;;;6.70;100.00;99558.94;106309;1261;100179;-79
2023/12/20 10:52:12;;;;;;;8.70;7.80;;;;;;;6.70;100.00;99553.25;105881;1266;99026;-80
2023/12/20 10:54:58;;;;;;;8.20;7.30;;;;;;;6.70;100.00;99551.13;106815;1262;96648;-80
2023/12/20 10:57:50;;;;;;;9.20;7.80;;;;;;;6.70;100.00;99545.60;106324;1262;96560;-79
2023/12/20 11:00:43;;;;;;;11.70;9.00;;;;;;;6.71;100.00;99540.58;106242;1260;100080;-79
2023/12/20 11:03:34;;;;;;;9.60;8.30;;;;;;;6.71;100.00;99536.65;106244;1264;99820;-79
2023/12/20 11:06:51;;;;;;;10.50;8.60;;;;;;;6.72;100.00;99535.86;106206;1264;99201;-80
2023/12/20 11:09:42;;;;;;;14.20;9.20;;;;;;;6.73;100.00;99532.90;106173;1260;96628;-79
2023/12/20 11:12:44;;;;;;;13.60;9.40;;;;;;;6.71;100.00;99529.33;106302;1262;96629;-79
2023/12/20 11:15:30;;;;;;;12.50;9.80;;;;;;;6.72;100.00;99524.23;106265;1261;101753;-80
2023/12/20 11:18:15;;;;;;;10.30;8.80;;;;;;;6.71;100.00;99518.91;106139;1264;99189;-80
2023/12/20 11:21:04;;;;;;;11.30;10.10;;;;;;;6.69;100.00;99521.80;106118;1262;97795;-80
2023/12/20 11:23:49;;;;;;;13.70;11.80;;;;;;;6.67;100.00;99523.98;106557;1264;96619;-77
2023/12/20 11:26:35;;;;;;;14.00;11.50;;;;;;;6.67;100.00;99517.07;105666;1262;97158;-85
2023/12/20 11:29:34;;;;;;;13.80;10.70;;;;;;;6.65;100.00;99516.14;106313;1262;100054;-79
2023/12/20 11:32:27;;;;;;;15.60;12.00;;;;;;;6.62;100.00;99514.48;105594;1267;100613;-78
2023/12/20 11:35:13;;;;;;;13.30;11.60;;;;;;;6.60;100.00;99514.89;106325;1262;99494;-78
2023/12/20 11:37:58;;;;;;;13.60;10.60;;;;;;;6.59;100.00;99518.36;105573;1262;96720;-78
2023/12/20 11:40:44;;;;;;;12.20;10.20;;;;;;;6.58;100.00;99516.84;105717;1264;97153;-78
2023/12/20 11:43:39;;;;;;;11.90;9.20;;;;;;;6.56;100.00;99517.90;105867;1263;100003;-78
2023/12/20 11:46:25;;;;;;;10.60;7.70;;;;;;;6.53;100.00;99516.55;105762;1261;99173;-78
2023/12/20 11:49:11;;;;;;;12.90;10.70;;;;;;;6.49;100.00;99512.56;105843;1265;97794;-78
2023/12/20 11:51:56;;;;;;;16.20;10.20;;;;;;;6.49;100.00;99512.80;105742;1265;96693;-77
2023/12/20 11:54:42;;;;;;;21.60;14.10;;;;;;;6.47;100.00;99508.08;105508;1261;98319;-84
2023/12/20 11:57:28;;;;;;;23.30;13.20;;;;;;;6.47;100.00;99499.08;105776;1267;100027;-84
2023/12/20 12:00:15;;;;;;;22.10;12.60;;;;;;;6.45;100.00;99494.38;105603;1262;99210;-84
2023/12/20 12:03:03;;;;;;;28.00;19.50;;;;;;;6.41;100.00;99497.25;105707;1262;97932;-85
2023/12/20 12:05:50;;;;;;;14.80;11.10;;;;;;;6.41;100.00;99502.37;105736;1262;96659;-83
2023/12/20 12:08:38;;;;;;;13.50;9.50;;;;;;;6.41;100.00;99500.45;106206;1266;96638;-78
2023/12/20 12:11:24;;;;;;;12.40;9.90;;;;;;;6.39;100.00;99499.61;106093;1264;101832;-87
2023/12/20 12:14:11;;;;;;;16.20;12.00;;;;;;;6.41;100.00;99495.38;105530;1262;111290;-76
2023/12/20 12:16:56;;;;;;;14.10;11.30;;;;;;;6.42;100.00;99493.70;105244;1263;97951;-75
2023/12/20 12:19:42;;;;;;;17.00;9.70;;;;;;;6.42;100.00;99485.66;105008;1266;96645;-76
2023/12/20 12:22:28;;;;;;;14.10;9.40;;;;;;;6.41;100.00;99484.75;104922;1266;97162;-76
2023/12/20 12:25:14;;;;;;;13.50;9.70;;;;;;;6.40;100.00;99484.14;104782;1267;100189;-75
2023/12/20 12:28:00;;;;;;;13.70;10.70;;;;;;;6.37;100.00;99477.02;104919;1264;99723;-76
2023/12/20 12:30:57;;;;;;;16.50;11.50;;;;;;;6.36;100.00;99478.57;105061;1265;97778;-76
2023/12/20 12:33:44;;;;;;;14.20;10.50;;;;;;;6.35;100.00;99473.92;105031;1267;98430;-77
2023/12/20 12:36:30;;;;;;;14.60;11.10;;;;;;;6.35;100.00;99472.46;104877;1262;97047;-76
2023/12/20 12:39:18;;;;;;;15.10;11.60;;;;;;;6.35;100.00;99475.89;105142;1267;101950;-84
2023/12/20 12:42:04;;;;;;;15.00;10.40;;;;;;;6.36;100.00;99476.80;106332;1262;99605;-88